createdAt,value
2022-12-28T00:00:02.651Z,101062.09
2022-12-28T00:02:31.122Z,101065.66
2022-12-28T00:04:59.033Z,101059.53
2022-12-28T00:07:26.970Z,101057.50
2022-12-28T00:09:54.853Z,101062.69
2022-12-28T00:12:24.136Z,101053.88
2022-12-28T00:14:52.043Z,101057.28
2022-12-28T00:17:19.936Z,101043.94
2022-12-28T00:19:47.847Z,101051.06
2022-12-28T00:22:15.750Z,101039.44
2022-12-28T00:24:43.622Z,101035.84
2022-12-28T00:27:14.097Z,101027.84
2022-12-28T00:29:43.453Z,101024.22
2022-12-28T00:32:11.363Z,101021.53
2022-12-28T00:34:39.289Z,101028.63
2022-12-28T00:37:10.692Z,101014.50
2022-12-28T00:39:40.943Z,101015.38
2022-12-28T00:42:08.910Z,101012.75
2022-12-28T00:44:36.849Z,101008.38
2022-12-28T00:47:06.214Z,101010.16
2022-12-28T00:49:34.115Z,101011.03
2022-12-28T00:52:01.995Z,101010.94
2022-12-28T00:54:30.195Z,100994.84
2022-12-28T00:56:58.113Z,101001.06
2022-12-28T00:59:26.007Z,100992.19
2022-12-28T01:01:54.045Z,101001.84
2022-12-28T01:04:23.710Z,100990.38
2022-12-28T01:06:51.641Z,100986.00
2022-12-28T01:09:19.537Z,100982.47
2022-12-28T01:11:47.498Z,100975.34
2022-12-28T01:14:15.416Z,100981.59
2022-12-28T01:16:43.323Z,100973.66
2022-12-28T01:19:11.546Z,100971.94
2022-12-28T01:21:41.052Z,100967.56
2022-12-28T01:24:10.387Z,100968.38
2022-12-28T01:26:38.315Z,100950.66
2022-12-28T01:29:06.190Z,100948.00
2022-12-28T01:31:34.126Z,100942.66
2022-12-28T01:34:02.371Z,100943.44
2022-12-28T01:36:31.492Z,100933.69
2022-12-28T01:39:02.735Z,100938.97
2022-12-28T01:41:31.075Z,100930.97
2022-12-28T01:44:44.566Z,100927.34
2022-12-28T01:47:17.008Z,100925.69
2022-12-28T01:49:48.094Z,100912.53
2022-12-28T01:52:17.453Z,100909.63
2022-12-28T01:54:47.560Z,100914.09
2022-12-28T01:57:15.494Z,100894.63
2022-12-28T01:59:46.254Z,100892.88
2022-12-28T02:02:14.257Z,100893.75
2022-12-28T02:04:42.262Z,100892.03
2022-12-28T02:07:10.278Z,100897.38
2022-12-28T02:09:39.907Z,100894.63
2022-12-28T02:12:09.300Z,100883.84
2022-12-28T02:14:37.219Z,100888.09
2022-12-28T02:17:05.404Z,100880.09
2022-12-28T02:19:37.504Z,100880.94
2022-12-28T02:22:18.418Z,100872.94
2022-12-28T02:25:12.502Z,100866.81
2022-12-28T02:27:47.664Z,100857.88
2022-12-28T02:30:16.927Z,100856.16
2022-12-28T02:32:56.493Z,100842.94
2022-12-28T02:35:29.025Z,100826.81
2022-12-28T02:37:57.888Z,100836.06
2022-12-28T02:40:27.529Z,100835.19
2022-12-28T02:42:55.920Z,100814.81
2022-12-28T02:45:51.874Z,100813.00
2022-12-28T02:48:37.474Z,100807.81
2022-12-28T02:51:15.236Z,100802.47
2022-12-28T02:54:05.169Z,100792.06
2022-12-28T02:56:34.888Z,100784.81
2022-12-28T02:59:22.071Z,100783.94
2022-12-28T03:02:26.101Z,100761.91
2022-12-28T03:05:08.836Z,100776.53
2022-12-28T03:07:57.045Z,100764.22
2022-12-28T03:10:26.772Z,100757.94
2022-12-28T03:12:57.820Z,100740.19
2022-12-28T03:15:30.705Z,100747.59
2022-12-28T03:18:18.155Z,100726.75
2022-12-28T03:21:05.117Z,100730.44
2022-12-28T03:23:50.568Z,100719.13
2022-12-28T03:26:36.003Z,100722.59
2022-12-28T03:29:21.152Z,100708.31
2022-12-28T03:31:49.068Z,100702.75
2022-12-28T03:34:16.963Z,100694.50
2022-12-28T03:36:49.763Z,100683.59
2022-12-28T03:39:23.743Z,100678.94
2022-12-28T03:42:10.916Z,100680.66
2022-12-28T03:44:38.824Z,100675.34
2022-12-28T03:47:08.091Z,100673.09
2022-12-28T03:49:36.055Z,100668.19
2022-12-28T03:52:05.643Z,100658.91
2022-12-28T03:54:33.531Z,100658.91
2022-12-28T03:57:01.453Z,100665.28
2022-12-28T03:59:29.341Z,100645.22
2022-12-28T04:01:57.313Z,100650.06
2022-12-28T04:04:25.345Z,100647.06
2022-12-28T04:06:53.278Z,100644.97
2022-12-28T04:09:23.123Z,100630.41
2022-12-28T04:11:50.998Z,100630.31
2022-12-28T04:14:18.888Z,100623.94
2022-12-28T04:16:46.780Z,100618.75
2022-12-28T04:19:14.728Z,100608.94
2022-12-28T04:21:42.614Z,100612.63
2022-12-28T04:24:10.545Z,100600.25
2022-12-28T04:26:39.857Z,100600.25
2022-12-28T04:29:07.731Z,100591.47
2022-12-28T04:31:35.676Z,100594.97
2022-12-28T04:34:03.662Z,100585.25
2022-12-28T04:36:31.587Z,100577.16
2022-12-28T04:38:59.637Z,100578.03
2022-12-28T04:41:27.818Z,100565.81
2022-12-28T04:43:57.201Z,100564.75
2022-12-28T04:46:25.224Z,100555.78
2022-12-28T04:48:53.157Z,100544.34
2022-12-28T04:51:21.800Z,100538.13
2022-12-28T04:53:49.777Z,100533.66
2022-12-28T04:56:18.320Z,100527.44
2022-12-28T04:58:46.994Z,100525.75
2022-12-28T05:01:17.172Z,100517.78
2022-12-28T05:03:54.187Z,100519.63
2022-12-28T05:06:23.856Z,100517.13
2022-12-28T05:08:51.846Z,100512.56
2022-12-28T05:11:20.599Z,100517.91
2022-12-28T05:13:48.575Z,100505.59
2022-12-28T05:16:18.710Z,100501.22
2022-12-28T05:18:46.637Z,100501.22
2022-12-28T05:21:15.284Z,100497.66
2022-12-28T05:23:43.174Z,100491.38
2022-12-28T05:26:12.596Z,100481.75
2022-12-28T05:28:40.637Z,100479.91
2022-12-28T05:31:09.681Z,100471.25
2022-12-28T05:33:39.144Z,100472.09
2022-12-28T05:36:07.778Z,100465.03
2022-12-28T05:38:35.811Z,100465.13
2022-12-28T05:41:07.666Z,100450.03
2022-12-28T05:43:35.700Z,100461.56
2022-12-28T05:46:04.408Z,100451.16
2022-12-28T05:48:33.392Z,100448.38
2022-12-28T05:51:03.801Z,100442.00
2022-12-28T05:53:31.708Z,100439.63
2022-12-28T05:56:03.750Z,100432.47
2022-12-28T05:58:31.678Z,100432.94
2022-12-28T06:01:07.126Z,100431.22
2022-12-28T06:03:35.376Z,100414.72
2022-12-28T06:06:09.579Z,100408.41
2022-12-28T06:08:37.539Z,100400.50
2022-12-28T06:11:06.260Z,100395.38
2022-12-28T06:13:34.384Z,100393.75
2022-12-28T06:16:06.678Z,100389.34
2022-12-28T06:18:34.629Z,100376.75
2022-12-28T06:21:03.789Z,100368.75
2022-12-28T06:23:33.138Z,100360.84
2022-12-28T06:26:01.144Z,100363.41
2022-12-28T06:28:29.031Z,100351.88
2022-12-28T06:31:03.239Z,100355.41
2022-12-28T06:33:31.262Z,100335.84
2022-12-28T06:35:59.221Z,100333.28
2022-12-28T06:38:27.464Z,100326.31
2022-12-28T06:41:13.240Z,100322.88
2022-12-28T06:43:42.447Z,100308.78
2022-12-28T06:46:10.453Z,100307.06
2022-12-28T06:48:38.437Z,100309.94
2022-12-28T06:51:07.317Z,100299.38
2022-12-28T06:53:36.233Z,100288.88
2022-12-28T06:56:06.628Z,100273.91
2022-12-28T06:58:34.550Z,100272.09
2022-12-28T07:01:07.487Z,100267.63
2022-12-28T07:03:35.501Z,100257.22
2022-12-28T07:06:03.659Z,100262.47
2022-12-28T07:08:31.705Z,100252.84
2022-12-28T07:11:03.438Z,100242.06
2022-12-28T07:13:32.791Z,100234.81
2022-12-28T07:16:03.359Z,100225.88
2022-12-28T07:18:31.289Z,100221.56
2022-12-28T07:21:02.483Z,100217.28
2022-12-28T07:23:31.513Z,100208.34
2022-12-28T07:25:59.660Z,100203.00
2022-12-28T07:28:27.570Z,100196.69
2022-12-28T07:30:57.138Z,100187.66
2022-12-28T07:33:25.093Z,100177.09
2022-12-28T07:35:53.054Z,100167.47
2022-12-28T07:38:21.700Z,100168.31
2022-12-28T07:40:49.720Z,100154.88
2022-12-28T07:43:17.646Z,100139.91
2022-12-28T07:45:45.738Z,100144.22
2022-12-28T07:48:15.043Z,100134.50
2022-12-28T07:50:42.930Z,100133.63
2022-12-28T07:53:10.781Z,100118.50
2022-12-28T07:55:40.415Z,100118.56
2022-12-28T07:58:08.355Z,100107.91
2022-12-28T08:00:36.388Z,100108.88
2022-12-28T08:03:04.427Z,100098.19
2022-12-28T08:05:34.444Z,100092.88
2022-12-28T08:08:03.840Z,100074.19
2022-12-28T08:10:32.165Z,100070.56
2022-12-28T08:13:00.314Z,100066.84
2022-12-28T08:15:28.238Z,100055.28
2022-12-28T08:17:56.202Z,100067.59
2022-12-28T08:20:24.258Z,100054.34
2022-12-28T08:22:53.528Z,100045.19
2022-12-28T08:25:21.679Z,100042.72
2022-12-28T08:27:49.623Z,100034.53
2022-12-28T08:30:17.777Z,100016.91
2022-12-28T08:32:45.740Z,100019.47
2022-12-28T08:35:13.672Z,100012.41
2022-12-28T08:37:44.729Z,100002.69
2022-12-28T08:40:14.403Z,99991.94
2022-12-28T08:42:42.296Z,99994.50
2022-12-28T08:45:10.687Z,99982.22
2022-12-28T08:47:38.562Z,99971.47
2022-12-28T08:50:07.789Z,99968.00
2022-12-28T08:52:35.767Z,99965.34
2022-12-28T08:55:03.721Z,99957.03
2022-12-28T08:57:33.851Z,99962.38
2022-12-28T09:00:01.718Z,99944.56
2022-12-28T09:02:29.923Z,99935.50
2022-12-28T09:04:58.037Z,99924.63
2022-12-28T09:07:25.922Z,99914.91
2022-12-28T09:09:53.857Z,99907.56
2022-12-28T09:12:21.773Z,99904.91
2022-12-28T09:14:51.098Z,99897.84
2022-12-28T09:17:18.996Z,99889.84
2022-12-28T09:19:47.179Z,99879.91
2022-12-28T09:22:15.105Z,99876.28
2022-12-28T09:24:43.122Z,99866.38
2022-12-28T09:27:11.029Z,99860.16
2022-12-28T09:29:38.913Z,99858.44
2022-12-28T09:32:08.245Z,99851.72
2022-12-28T09:34:37.802Z,99833.91
2022-12-28T09:37:06.622Z,99824.09
2022-12-28T09:39:34.584Z,99805.72
2022-12-28T09:42:03.793Z,99817.56
2022-12-28T09:44:39.784Z,99791.22
2022-12-28T09:47:17.334Z,99803.06
2022-12-28T09:49:47.688Z,99788.63
2022-12-28T09:52:26.286Z,99792.91
2022-12-28T09:54:54.265Z,99784.91
2022-12-28T09:57:22.177Z,99778.38
2022-12-28T09:59:50.043Z,99772.94
2022-12-28T10:02:20.985Z,99762.03
2022-12-28T10:04:49.854Z,99763.69
2022-12-28T10:07:17.773Z,99754.47
2022-12-28T10:09:45.746Z,99745.41
2022-12-28T10:12:15.382Z,99731.63
2022-12-28T10:14:43.964Z,99739.84
2022-12-28T10:17:12.817Z,99734.38
2022-12-28T10:19:42.122Z,99733.44
2022-12-28T10:22:12.722Z,99707.28
2022-12-28T10:24:40.766Z,99719.22
2022-12-28T10:27:21.028Z,99724.31
2022-12-28T10:29:50.829Z,99708.94
2022-12-28T10:32:19.376Z,99701.81
2022-12-28T10:34:57.019Z,99708.81
2022-12-28T10:37:25.466Z,99702.41
2022-12-28T10:39:55.693Z,99701.34
2022-12-28T10:42:26.093Z,99692.00
2022-12-28T10:44:54.237Z,99698.00
2022-12-28T10:47:30.364Z,99678.22
2022-12-28T10:52:57.837Z,99675.94
2022-12-28T10:55:30.219Z,99679.00
2022-12-28T11:00:55.566Z,99676.00
2022-12-28T11:03:28.296Z,99667.00
2022-12-28T11:06:14.012Z,99669.69
2022-12-28T11:08:42.460Z,99664.97
2022-12-28T11:11:20.910Z,99661.44
2022-12-28T11:13:51.520Z,99666.06
2022-12-28T11:16:19.514Z,99666.66
2022-12-28T11:18:47.449Z,99650.75
2022-12-28T11:21:20.795Z,99656.69
2022-12-28T11:23:49.174Z,99663.75
2022-12-28T11:26:18.097Z,99646.00
2022-12-28T11:28:46.182Z,99657.94
2022-12-28T11:31:19.860Z,99662.00
2022-12-28T11:33:49.254Z,99648.16
2022-12-28T11:36:19.298Z,99658.63
2022-12-28T11:38:47.904Z,99640.50
2022-12-28T11:41:51.235Z,99639.44
2022-12-28T11:44:49.761Z,99636.16
2022-12-28T11:47:34.164Z,99630.69
2022-12-28T11:50:44.121Z,99641.13
2022-12-28T11:53:24.369Z,99634.47
2022-12-28T11:56:00.610Z,99621.56
2022-12-28T11:58:46.999Z,99627.16
2022-12-28T12:01:42.919Z,99631.56
2022-12-28T12:04:19.118Z,99623.53
2022-12-28T12:07:31.672Z,99620.88
2022-12-28T12:10:29.878Z,99626.44
2022-12-28T12:13:01.343Z,99622.19
2022-12-28T12:15:41.176Z,99626.66
2022-12-28T12:18:15.172Z,99624.13
2022-12-28T12:20:51.870Z,99626.94
2022-12-28T12:23:40.523Z,99627.16
2022-12-28T12:26:22.187Z,99651.69
2022-12-28T12:28:51.108Z,99653.84
2022-12-28T12:31:24.733Z,99661.88
2022-12-28T12:33:52.708Z,99641.56
2022-12-28T12:36:32.303Z,99658.97
2022-12-28T12:39:18.726Z,99672.81
2022-12-28T12:41:51.874Z,99668.97
2022-12-28T12:44:23.411Z,99677.00
2022-12-28T12:47:08.158Z,99675.88
2022-12-28T12:49:47.856Z,99672.97
2022-12-28T12:52:25.142Z,99666.78
2022-12-28T12:55:00.221Z,99685.25
2022-12-28T12:57:32.292Z,99681.94
2022-12-28T13:00:05.325Z,99687.72
2022-12-28T13:03:04.381Z,99679.44
2022-12-28T13:05:32.390Z,99664.13
2022-12-28T13:08:00.347Z,99671.97
2022-12-28T13:10:31.021Z,99659.19
2022-12-28T13:13:01.043Z,99659.53
2022-12-28T13:15:29.013Z,99666.47
2022-12-28T13:18:18.209Z,99658.47
2022-12-28T13:20:55.791Z,99636.97
2022-12-28T13:23:23.838Z,99653.75
2022-12-28T13:25:52.736Z,99637.56
2022-12-28T13:28:23.835Z,99651.78
2022-12-28T13:31:05.279Z,99644.38
2022-12-28T13:33:33.392Z,99639.75
2022-12-28T13:36:06.687Z,99636.84
2022-12-28T13:38:34.671Z,99624.44
2022-12-28T13:41:03.149Z,99629.78
2022-12-28T13:43:56.376Z,99637.22
2022-12-28T13:46:25.022Z,99635.78
2022-12-28T13:48:53.775Z,99636.88
2022-12-28T13:51:21.736Z,99642.06
2022-12-28T13:53:51.100Z,99629.41
2022-12-28T13:56:19.491Z,99632.78
2022-12-28T13:58:53.765Z,99624.97
2022-12-28T14:01:23.604Z,99620.25
2022-12-28T14:03:51.666Z,99615.34
2022-12-28T14:06:19.681Z,99622.00
2022-12-28T14:08:47.599Z,99633.78
2022-12-28T14:11:15.543Z,99624.09
2022-12-28T14:13:43.529Z,99615.19
2022-12-28T14:16:13.010Z,99601.34
2022-12-28T14:18:41.265Z,99613.09
2022-12-28T14:21:09.187Z,99608.16
2022-12-28T14:23:38.023Z,99618.63
2022-12-28T14:26:06.731Z,99611.09
2022-12-28T14:28:36.331Z,99595.72
2022-12-28T14:31:04.484Z,99601.09
2022-12-28T14:33:35.470Z,99592.75
2022-12-28T14:36:04.304Z,99597.97
2022-12-28T14:38:33.841Z,99601.25
2022-12-28T14:41:02.177Z,99599.22
2022-12-28T14:43:30.738Z,99607.97
2022-12-28T14:46:05.872Z,99597.41
2022-12-28T14:48:40.332Z,99591.06
2022-12-28T14:51:25.790Z,99593.28
2022-12-28T14:54:19.687Z,99588.31
2022-12-28T14:56:48.663Z,99590.97
2022-12-28T14:59:18.913Z,99588.31
2022-12-28T15:01:47.516Z,99593.56
2022-12-28T15:04:28.264Z,99607.00
2022-12-28T15:06:56.152Z,99603.72
2022-12-28T15:09:24.063Z,99597.78
2022-12-28T15:12:09.489Z,99603.34
2022-12-28T15:14:37.709Z,99584.66
2022-12-28T15:17:05.826Z,99595.34
2022-12-28T15:19:35.996Z,99590.13
2022-12-28T15:22:03.914Z,99587.31
2022-12-28T15:24:34.314Z,99586.47
2022-12-28T15:27:02.957Z,99576.84
2022-12-28T15:32:20.051Z,99559.50
2022-12-28T15:34:49.324Z,99583.19
2022-12-28T15:37:17.458Z,99584.03
2022-12-28T15:39:45.409Z,99594.59
2022-12-28T15:42:13.370Z,99574.31
2022-12-28T15:44:41.235Z,99584.13
2022-12-28T15:47:09.402Z,99552.16
2022-12-28T15:49:37.350Z,99577.94
2022-12-28T15:52:06.750Z,99558.50
2022-12-28T15:54:34.681Z,99565.56
2022-12-28T15:57:02.598Z,99560.56
2022-12-28T15:59:30.815Z,99568.22
2022-12-28T16:01:59.019Z,99569.53
2022-12-28T16:04:27.214Z,99570.91
2022-12-28T16:06:55.216Z,99567.72
2022-12-28T16:09:24.745Z,99566.88
2022-12-28T16:11:55.309Z,99547.69
2022-12-28T16:14:23.484Z,99575.00
2022-12-28T16:16:51.549Z,99561.03
2022-12-28T16:19:19.952Z,99554.09
2022-12-28T16:21:53.359Z,99546.81
2022-12-28T16:24:22.084Z,99546.81
2022-12-28T16:26:51.936Z,99553.84
2022-12-28T16:29:20.044Z,99539.53
2022-12-28T16:31:48.076Z,99540.50
2022-12-28T16:34:18.600Z,99536.88
2022-12-28T16:36:46.766Z,99524.47
2022-12-28T16:39:15.908Z,99535.94
2022-12-28T16:41:44.003Z,99541.88
2022-12-28T16:44:15.882Z,99552.44
2022-12-28T16:46:43.796Z,99550.97
2022-12-28T16:49:11.997Z,99547.34
2022-12-28T16:51:40.167Z,99543.69
2022-12-28T16:54:08.089Z,99544.66
2022-12-28T16:56:36.052Z,99549.03
2022-12-28T16:59:04.010Z,99559.97
2022-12-28T17:01:33.443Z,99545.09
2022-12-28T17:04:04.013Z,99533.81
2022-12-28T17:06:32.612Z,99543.59
2022-12-28T17:09:02.023Z,99538.34
2022-12-28T17:11:29.965Z,99527.06
2022-12-28T17:14:01.531Z,99528.00
2022-12-28T17:16:29.647Z,99524.09
2022-12-28T17:18:58.988Z,99531.38
2022-12-28T17:21:26.955Z,99520.31
2022-12-28T17:23:54.919Z,99541.78
2022-12-28T17:26:22.881Z,99539.25
2022-12-28T17:28:50.812Z,99557.22
2022-12-28T17:31:19.995Z,99543.59
2022-12-28T17:33:48.182Z,99549.59
2022-12-28T17:36:17.627Z,99551.28
2022-12-28T17:38:45.665Z,99535.97
2022-12-28T17:41:14.495Z,99534.78
2022-12-28T17:43:47.482Z,99539.16
2022-12-28T17:46:40.934Z,99536.28
2022-12-28T17:49:24.028Z,99530.16
2022-12-28T17:52:06.412Z,99531.38
2022-12-28T17:54:34.410Z,99527.09
2022-12-28T17:57:02.366Z,99527.22
2022-12-28T17:59:30.569Z,99531.72
2022-12-28T18:02:01.312Z,99514.88
2022-12-28T18:04:30.241Z,99521.91
2022-12-28T18:07:00.638Z,99528.69
2022-12-28T18:09:29.757Z,99516.56
2022-12-28T18:11:58.121Z,99515.59
2022-12-28T18:14:26.286Z,99507.25
2022-12-28T18:16:54.461Z,99501.38
2022-12-28T18:19:22.730Z,99511.94
2022-12-28T18:21:50.597Z,99502.13
2022-12-28T18:24:21.332Z,99496.28
2022-12-28T18:26:49.533Z,99501.53
2022-12-28T18:29:17.422Z,99495.41
2022-12-28T18:31:49.453Z,99482.31
2022-12-28T18:34:20.119Z,99491.91
2022-12-28T18:36:54.795Z,99481.84
2022-12-28T18:39:30.434Z,99493.50
2022-12-28T18:42:05.602Z,99509.97
2022-12-28T18:44:35.554Z,99497.09
2022-12-28T18:47:03.494Z,99504.50
2022-12-28T18:49:35.630Z,99490.84
2022-12-28T18:52:19.501Z,99495.47
2022-12-28T18:55:06.077Z,99487.66
2022-12-28T18:57:34.166Z,99490.41
2022-12-28T19:00:02.439Z,99486.81
2022-12-28T19:02:39.096Z,99443.06
2022-12-28T19:05:09.710Z,99506.75
2022-12-28T19:07:38.704Z,99498.84
2022-12-28T19:10:16.157Z,99488.19
2022-12-28T19:12:49.226Z,99498.63
2022-12-28T19:15:22.005Z,99508.34
2022-12-28T19:18:09.396Z,99492.66
2022-12-28T19:20:37.543Z,99503.63
2022-12-28T19:23:07.561Z,99500.94
2022-12-28T19:25:40.987Z,99497.09
2022-12-28T19:28:09.020Z,99489.94
2022-12-28T19:30:37.355Z,99494.31
2022-12-28T19:33:08.731Z,99489.94
2022-12-28T19:35:38.168Z,99475.00
2022-12-28T19:38:17.209Z,99482.84
2022-12-28T19:40:52.015Z,99479.31
2022-12-28T19:43:22.589Z,99464.00
2022-12-28T19:45:55.945Z,99481.78
2022-12-28T19:48:42.047Z,99471.97
2022-12-28T19:51:10.583Z,99495.00
2022-12-28T19:53:47.907Z,99491.25
2022-12-28T19:56:20.690Z,99500.09
2022-12-28T19:58:48.868Z,99519.63
2022-12-28T20:01:19.219Z,99518.16
2022-12-28T20:03:47.688Z,99509.41
2022-12-28T20:06:18.176Z,99517.75
2022-12-28T20:08:46.256Z,99503.53
2022-12-28T20:11:15.123Z,99518.00
2022-12-28T20:13:44.677Z,99507.06
2022-12-28T20:16:22.028Z,99512.66
2022-12-28T20:18:50.827Z,99495.88
2022-12-28T20:21:20.552Z,99503.66
2022-12-28T20:23:53.047Z,99500.06
2022-12-28T20:26:25.100Z,99500.78
2022-12-28T20:28:57.759Z,99494.38
2022-12-28T20:31:31.074Z,99499.59
2022-12-28T20:34:04.889Z,99495.72
2022-12-28T20:36:34.714Z,99494.78
2022-12-28T20:39:02.862Z,99492.09
2022-12-28T20:41:48.519Z,99498.25
2022-12-28T20:44:18.778Z,99500.84
2022-12-28T20:46:46.730Z,99493.56
2022-12-28T20:49:14.651Z,99490.91
2022-12-28T20:51:42.649Z,99485.56
2022-12-28T20:54:10.785Z,99486.84
2022-12-28T20:56:41.716Z,99478.38
2022-12-28T20:59:09.889Z,99468.78
2022-12-28T21:01:39.311Z,99471.66
2022-12-28T21:04:07.471Z,99474.31
2022-12-28T21:06:35.449Z,99467.91
2022-12-28T21:09:03.918Z,99470.25
2022-12-28T21:11:33.265Z,99467.44
2022-12-28T21:14:01.259Z,99484.91
2022-12-28T21:16:29.438Z,99476.31
2022-12-28T21:18:58.764Z,99466.72
2022-12-28T21:21:26.648Z,99474.84
2022-12-28T21:23:54.548Z,99474.66
2022-12-28T21:26:22.611Z,99483.88
2022-12-28T21:28:50.494Z,99484.31
2022-12-28T21:31:18.440Z,99460.19
2022-12-28T21:33:46.612Z,99476.72
2022-12-28T21:36:16.628Z,99474.53
2022-12-28T21:38:44.971Z,99475.31
2022-12-28T21:41:14.015Z,99471.53
2022-12-28T21:43:41.907Z,99473.97
2022-12-28T21:46:10.602Z,99466.84
2022-12-28T21:48:38.515Z,99471.19
2022-12-28T21:51:27.667Z,99464.16
2022-12-28T21:53:56.979Z,99472.03
2022-12-28T21:56:25.025Z,99487.88
2022-12-28T21:58:53.093Z,99479.19
2022-12-28T22:01:38.532Z,99472.44
2022-12-28T22:04:23.805Z,99467.47
2022-12-28T22:06:51.652Z,99443.47
2022-12-28T22:09:38.546Z,99471.66
2022-12-28T22:12:24.594Z,99475.41
2022-12-28T22:15:13.727Z,99459.22
2022-12-28T22:17:41.605Z,99454.13
2022-12-28T22:20:10.088Z,99469.66
2022-12-28T22:22:38.023Z,99463.06
2022-12-28T22:25:07.705Z,99469.66
2022-12-28T22:27:35.723Z,99481.50
2022-12-28T22:30:03.810Z,99452.72
2022-12-28T22:32:31.701Z,99468.31
2022-12-28T22:34:59.722Z,99452.31
2022-12-28T22:37:27.602Z,99454.88
2022-12-28T22:39:55.519Z,99421.63
2022-12-28T22:42:24.842Z,99446.03
2022-12-28T22:44:52.765Z,99441.94
2022-12-28T22:47:20.686Z,99431.06
2022-12-28T22:49:48.610Z,99436.19
2022-12-28T22:52:16.507Z,99440.25
2022-12-28T22:54:46.485Z,99423.72
2022-12-28T22:57:14.351Z,99425.00
2022-12-28T22:59:43.621Z,99422.09
2022-12-28T23:02:11.735Z,99414.94
2022-12-28T23:04:39.812Z,99410.69
2022-12-28T23:07:07.700Z,99415.81
2022-12-28T23:09:35.639Z,99423.69
2022-12-28T23:12:03.561Z,99425.88
2022-12-28T23:14:48.922Z,99463.00
2022-12-28T23:17:18.223Z,99424.31
2022-12-28T23:20:03.880Z,99420.16
2022-12-28T23:22:50.479Z,99404.41
2022-12-28T23:25:36.850Z,99420.50
2022-12-28T23:28:07.075Z,99420.63
2022-12-28T23:30:35.125Z,99403.53
2022-12-28T23:33:04.626Z,99399.28
2022-12-28T23:35:32.540Z,99415.81
2022-12-28T23:38:00.459Z,99405.88
2022-12-28T23:40:28.639Z,99396.16
2022-12-28T23:42:56.522Z,99397.31
2022-12-28T23:45:24.571Z,99382.81
2022-12-28T23:47:53.548Z,99392.28
2022-12-28T23:50:22.962Z,99388.63
2022-12-28T23:52:54.013Z,99388.41
2022-12-28T23:55:21.979Z,99380.19
2022-12-28T23:57:49.901Z,99390.91
